Time;durP1;ratioP1;P1;durP2;ratioP2;P2;SDS_P1;SDS_P2;PMS_P1;PMS_P2;Temp;Humidity;BMP_temperature;BMP_pressure;BME280_temperature;BME280_humidity;BME280_pressure;Samples;Min_cycle;Max_cycle;Signal;HPM_P1;HPM_P2
2022/10/13 00:00:47;;;;;;;9.27;3.40;;;;;;;3.66;100.00;101510.72;4929149;29;20047;-82
2022/10/13 00:03:15;;;;;;;4.93;3.00;;;;;;;3.56;100.00;101509.66;4932613;29;20485;-80
2022/10/13 00:05:46;;;;;;;6.07;2.70;;;;;;;3.54;100.00;101505.25;4951911;28;20046;-80
2022/10/13 00:08:14;;;;;;;5.97;3.30;;;;;;;3.46;100.00;101506.81;4939405;29;20054;-82
2022/10/13 00:10:41;;;;;;;6.13;3.10;;;;;;;3.55;100.00;101504.41;4922409;29;20039;-81
2022/10/13 00:13:08;;;;;;;6.30;3.53;;;;;;;3.53;100.00;101506.06;4937810;29;20043;-80
2022/10/13 00:15:39;;;;;;;6.53;3.50;;;;;;;3.55;100.00;101501.78;4937232;29;20128;-83
2022/10/13 00:18:06;;;;;;;6.50;3.03;;;;;;;3.62;100.00;101498.44;4952772;28;20047;-83
2022/10/13 00:20:33;;;;;;;8.57;3.30;;;;;;;3.55;100.00;101499.16;4921333;29;20073;-82
2022/10/13 00:23:00;;;;;;;8.57;3.47;;;;;;;3.51;100.00;101498.19;4916906;29;20051;-82
2022/10/13 00:25:27;;;;;;;5.70;2.97;;;;;;;3.46;100.00;101494.63;4926277;29;20055;-82
2022/10/13 00:27:54;;;;;;;8.20;3.27;;;;;;;3.43;100.00;101494.53;4935494;29;20106;-82
2022/10/13 00:30:20;;;;;;;7.30;3.20;;;;;;;3.41;100.00;101492.75;4918674;29;20051;-82
2022/10/13 00:32:47;;;;;;;7.17;3.53;;;;;;;3.42;100.00;101494.50;4952260;29;20042;-82
2022/10/13 00:35:13;;;;;;;8.23;5.07;;;;;;;3.50;100.00;101490.34;4936795;29;20043;-82
2022/10/13 00:37:40;;;;;;;7.83;3.73;;;;;;;3.39;100.00;101492.72;4920537;29;20051;-82
2022/10/13 00:40:07;;;;;;;7.17;3.47;;;;;;;3.32;100.00;101494.31;4937222;29;20050;-82
2022/10/13 00:42:34;;;;;;;7.93;3.77;;;;;;;3.34;100.00;101486.50;4920965;29;20067;-82
2022/10/13 00:45:21;;;;;;;8.53;3.87;;;;;;;3.36;100.00;101490.94;4922025;29;20054;-83
2022/10/13 00:47:52;;;;;;;6.20;3.47;;;;;;;3.27;100.00;101495.03;4936105;29;20043;-82
2022/10/13 00:50:22;;;;;;;6.17;3.43;;;;;;;3.25;100.00;101483.69;4934957;29;20039;-81
2022/10/13 00:52:50;;;;;;;9.57;3.73;;;;;;;3.23;100.00;101486.28;4952992;28;20130;-83
2022/10/13 00:55:20;;;;;;;5.60;3.03;;;;;;;3.24;100.00;101490.66;4913084;29;20039;-82
2022/10/13 00:57:53;;;;;;;6.17;3.20;;;;;;;3.25;100.00;101483.69;4936598;29;20043;-82
2022/10/13 01:00:23;;;;;;;8.20;3.27;;;;;;;3.32;100.00;101496.91;4951148;28;20043;-83
2022/10/13 01:02:50;;;;;;;7.23;3.50;;;;;;;3.28;100.00;101489.88;4922383;28;20043;-82
2022/10/13 01:05:18;;;;;;;8.83;4.17;;;;;;;3.27;100.00;101487.22;4934620;29;20046;-82
2022/10/13 01:07:49;;;;;;;6.23;3.30;;;;;;;3.24;100.00;101484.53;4920159;29;20039;-82
2022/10/13 01:10:45;;;;;;;6.70;4.50;;;;;;;3.27;100.00;101482.88;4949388;28;20050;-83
2022/10/13 01:13:36;;;;;;;4.97;3.03;;;;;;;3.13;100.00;101483.44;4962118;28;20046;-82
2022/10/13 01:16:03;;;;;;;5.97;3.20;;;;;;;3.14;100.00;101485.19;4946643;29;20051;-82
2022/10/13 01:18:44;;;;;;;9.73;3.90;;;;;;;3.14;100.00;101478.22;4950819;28;20425;-83
2022/10/13 01:21:25;;;;;;;7.47;3.67;;;;;;;3.04;100.00;101482.38;4934599;29;20039;-81
2022/10/13 01:24:29;;;;;;;7.00;3.83;;;;;;;3.01;100.00;101479.66;4919787;29;20044;-80
2022/10/13 01:27:33;;;;;;;6.77;3.60;;;;;;;3.06;100.00;101475.44;4950695;28;20050;-80
2022/10/13 01:30:04;;;;;;;10.00;4.17;;;;;;;3.05;100.00;101475.41;4947684;28;20039;-82
2022/10/13 01:32:57;;;;;;;5.87;3.40;;;;;;;3.04;100.00;101473.66;4933469;29;20299;-81
2022/10/13 01:35:36;;;;;;;9.90;4.43;;;;;;;3.00;100.00;101470.06;4948661;29;20400;-81
2022/10/13 01:38:14;;;;;;;6.73;3.97;;;;;;;2.94;100.00;101466.44;4966730;28;20105;-81
2022/10/13 01:40:50;;;;;;;6.73;4.57;;;;;;;3.00;100.00;101463.97;4967806;28;20612;-81
2022/10/13 01:43:28;;;;;;;5.00;3.40;;;;;;;2.99;100.00;101463.09;4936057;28;20054;-82
2022/10/13 01:45:59;;;;;;;5.57;3.70;;;;;;;2.97;100.00;101461.31;4942158;29;20047;-81
2022/10/13 01:48:27;;;;;;;8.80;4.23;;;;;;;2.89;100.00;101457.63;4934278;29;20043;-81
2022/10/13 01:50:55;;;;;;;8.77;4.00;;;;;;;2.95;100.00;101461.28;4938363;28;20160;-80
2022/10/13 01:53:22;;;;;;;6.50;3.63;;;;;;;2.99;100.00;101457.88;4943197;28;20035;-81
2022/10/13 01:55:51;;;;;;;8.27;4.57;;;;;;;3.00;100.00;101451.81;4935195;28;20043;-81
2022/10/13 01:58:17;;;;;;;10.83;4.47;;;;;;;2.96;100.00;101455.19;4913253;29;20086;-81
2022/10/13 02:00:54;;;;;;;7.23;3.83;;;;;;;2.90;100.00;101443.72;4919537;29;20110;-80
2022/10/13 02:03:26;;;;;;;6.37;4.30;;;;;;;2.96;100.00;101441.28;4950308;28;20039;-81
2022/10/13 02:06:15;;;;;;;8.07;4.27;;;;;;;2.95;100.00;101444.72;4928970;29;20048;-81
2022/10/13 02:08:49;;;;;;;8.07;4.17;;;;;;;2.92;100.00;101436.81;4932060;29;20594;-81
2022/10/13 02:11:18;;;;;;;10.90;4.47;;;;;;;3.03;100.00;101437.97;4966015;28;20136;-80
2022/10/13 02:13:51;;;;;;;6.30;3.97;;;;;;;2.92;100.00;101428.97;4935370;29;20174;-81
2022/10/13 02:16:22;;;;;;;6.97;4.17;;;;;;;2.86;100.00;101426.22;4948085;29;20047;-81
2022/10/13 02:18:49;;;;;;;7.53;4.20;;;;;;;2.85;100.00;101427.94;4934499;28;20035;-80
2022/10/13 02:21:16;;;;;;;14.37;4.67;;;;;;;2.80;100.00;101432.19;4949292;29;21900;-80
2022/10/13 02:23:43;;;;;;;9.43;4.27;;;;;;;2.73;100.00;101425.94;4913869;29;20039;-80
2022/10/13 02:26:10;;;;;;;6.63;4.07;;;;;;;2.75;100.00;101421.63;4935191;29;20043;-80
2022/10/13 02:28:37;;;;;;;8.60;4.37;;;;;;;2.71;100.00;101426.78;4938736;28;20078;-80
2022/10/13 02:31:05;;;;;;;8.47;3.80;;;;;;;2.71;100.00;101417.22;4950324;29;20138;-80
2022/10/13 02:33:32;;;;;;;7.63;4.10;;;;;;;2.64;100.00;101420.50;4952396;29;20452;-79
2022/10/13 02:35:59;;;;;;;6.53;4.10;;;;;;;2.63;100.00;101413.53;4950571;28;20047;-80
2022/10/13 02:38:25;;;;;;;12.03;4.70;;;;;;;2.63;100.00;101420.47;4919896;29;20047;-80
2022/10/13 02:40:53;;;;;;;7.10;4.70;;;;;;;2.62;100.00;101419.59;4918457;29;20094;-81
2022/10/13 02:43:20;;;;;;;8.33;4.70;;;;;;;2.59;100.00;101413.41;4950546;29;20027;-80
2022/10/13 02:45:46;;;;;;;8.30;5.10;;;;;;;2.58;100.00;101417.75;4935200;29;20054;-81
2022/10/13 02:48:13;;;;;;;8.90;4.80;;;;;;;2.70;100.00;101407.63;4952757;29;20066;-80
2022/10/13 02:50:40;;;;;;;9.73;4.40;;;;;;;2.59;100.00;101408.19;4971902;28;20484;-81
2022/10/13 02:53:06;;;;;;;7.90;4.87;;;;;;;2.58;100.00;101403.84;4935070;29;20441;-81
2022/10/13 02:55:33;;;;;;;7.33;4.00;;;;;;;2.54;100.00;101401.16;5016512;23;1059008;-81
2022/10/13 02:58:00;;;;;;;7.90;4.10;;;;;;;2.52;100.00;101392.44;4935606;29;20039;-81
2022/10/13 03:00:26;;;;;;;6.47;4.17;;;;;;;2.57;100.00;101389.03;4958635;28;20496;-79
2022/10/13 03:02:53;;;;;;;6.73;4.47;;;;;;;2.71;100.00;101390.25;4935956;29;20123;-80
2022/10/13 03:05:20;;;;;;;8.37;4.53;;;;;;;2.65;100.00;101385.75;4950345;28;20044;-80
2022/10/13 03:07:48;;;;;;;7.60;4.00;;;;;;;2.63;100.00;101389.19;4938015;28;20062;-80
2022/10/13 03:10:15;;;;;;;8.77;4.80;;;;;;;2.69;100.00;101385.00;4921131;29;20047;-81
2022/10/13 03:12:42;;;;;;;9.47;4.90;;;;;;;2.76;100.00;101373.81;4952299;28;20552;-80
2022/10/13 03:15:08;;;;;;;8.03;5.13;;;;;;;2.77;100.00;101375.59;4919159;29;20043;-80
2022/10/13 03:17:35;;;;;;;7.20;4.80;;;;;;;2.72;100.00;101373.75;4941015;28;20043;-80
2022/10/13 03:20:02;;;;;;;6.50;4.23;;;;;;;2.58;100.00;101365.59;4936187;28;20112;-80
2022/10/13 03:22:31;;;;;;;7.97;3.90;;;;;;;2.58;100.00;101364.69;4936739;29;20094;-81
2022/10/13 03:24:58;;;;;;;7.13;4.27;;;;;;;2.56;100.00;101375.09;4928789;29;20057;-80
2022/10/13 03:27:24;;;;;;;11.30;4.40;;;;;;;2.51;100.00;101374.09;4940399;28;20043;-80
2022/10/13 03:29:51;;;;;;;8.87;4.53;;;;;;;2.48;100.00;101367.09;4936289;29;20051;-80
2022/10/13 03:32:17;;;;;;;8.00;5.20;;;;;;;2.50;100.00;101369.75;4947087;28;20051;-79
2022/10/13 03:34:45;;;;;;;10.93;6.03;;;;;;;2.52;100.00;101368.03;4927566;28;22126;-79
2022/10/13 03:37:11;;;;;;;10.87;5.83;;;;;;;2.53;100.00;101372.44;4920646;29;20043;-80
2022/10/13 03:39:38;;;;;;;12.57;6.00;;;;;;;2.68;100.00;101375.38;4984887;28;20038;-80
2022/10/13 03:42:05;;;;;;;10.03;6.07;;;;;;;2.56;100.00;101372.50;4938697;28;20058;-80
2022/10/13 03:44:31;;;;;;;8.97;5.10;;;;;;;2.49;100.00;101361.03;4940330;28;20038;-80
2022/10/13 03:46:58;;;;;;;10.77;5.63;;;;;;;2.50;100.00;101364.53;4923178;29;20051;-80
2022/10/13 03:49:25;;;;;;;10.90;6.40;;;;;;;2.53;100.00;101362.00;4943264;28;20047;-80
2022/10/13 03:51:51;;;;;;;8.33;5.47;;;;;;;2.59;100.00;101354.31;4938697;29;20424;-79
2022/10/13 03:54:18;;;;;;;9.73;5.70;;;;;;;2.58;100.00;101355.16;4922953;28;20039;-80
2022/10/13 03:56:45;;;;;;;11.30;5.60;;;;;;;2.56;100.00;101351.63;4940810;29;20047;-79
2022/10/13 03:59:15;;;;;;;9.77;6.13;;;;;;;2.70;100.00;101352.84;4935730;28;20119;-79
2022/10/13 04:01:42;;;;;;;8.83;5.07;;;;;;;2.59;100.00;101349.09;4941842;28;20039;-79
2022/10/13 04:04:10;;;;;;;10.70;5.90;;;;;;;2.73;100.00;101342.47;4925685;29;20035;-79
2022/10/13 04:06:37;;;;;;;11.37;5.60;;;;;;;2.68;100.00;101346.69;4954405;28;20039;-80
2022/10/13 04:09:04;;;;;;;9.10;5.37;;;;;;;2.61;100.00;101342.19;4960322;28;20053;-80
2022/10/13 04:11:30;;;;;;;7.53;4.93;;;;;;;2.62;100.00;101336.13;4939374;28;20048;-80
2022/10/13 04:13:57;;;;;;;8.17;5.03;;;;;;;2.64;100.00;101334.44;4935294;29;20040;-80
2022/10/13 04:16:26;;;;;;;8.80;5.30;;;;;;;2.65;100.00;101328.34;4947743;28;20039;-80
2022/10/13 04:18:56;;;;;;;11.43;5.00;;;;;;;2.68;100.00;101330.16;4924227;29;20444;-79
2022/10/13 04:21:23;;;;;;;11.10;5.17;;;;;;;2.68;100.00;101328.41;4935514;29;20571;-80
2022/10/13 04:23:50;;;;;;;9.53;4.87;;;;;;;2.72;100.00;101329.38;4935274;29;20047;-80
2022/10/13 04:26:21;;;;;;;7.87;5.00;;;;;;;2.75;100.00;101332.06;4919247;28;20063;-80
2022/10/13 04:28:49;;;;;;;8.63;5.77;;;;;;;2.82;100.00;101328.72;4937730;29;20094;-80
2022/10/13 04:31:16;;;;;;;11.67;6.20;;;;;;;2.83;100.00;101333.97;4926322;29;20043;-80
2022/10/13 04:33:44;;;;;;;11.07;6.67;;;;;;;2.86;100.00;101330.56;4926029;28;20043;-79
2022/10/13 04:36:11;;;;;;;10.67;6.13;;;;;;;2.94;100.00;101339.41;4930834;28;20045;-80
2022/10/13 04:38:38;;;;;;;10.53;5.30;;;;;;;2.90;100.00;101336.72;4958490;28;20328;-79
2022/10/13 04:41:06;;;;;;;10.10;5.83;;;;;;;2.94;100.00;101338.53;4919388;28;20106;-80
2022/10/13 04:43:33;;;;;;;10.17;5.63;;;;;;;2.96;100.00;101332.53;4953213;28;20051;-79
2022/10/13 04:46:04;;;;;;;9.47;5.60;;;;;;;3.01;100.00;101340.44;4937904;28;20057;-80
2022/10/13 04:48:31;;;;;;;10.07;6.33;;;;;;;3.06;100.00;101326.66;4942343;28;20039;-79
2022/10/13 04:51:02;;;;;;;11.40;6.43;;;;;;;3.21;100.00;101319.97;4935842;29;20095;-79
2022/10/13 04:53:30;;;;;;;10.20;6.70;;;;;;;3.22;100.00;101326.97;4921844;28;20101;-79
2022/10/13 04:56:01;;;;;;;13.97;7.10;;;;;;;3.47;100.00;101330.94;4922501;29;20050;-80
2022/10/13 04:58:28;;;;;;;12.03;7.30;;;;;;;3.36;100.00;101325.47;4935936;28;20084;-80
2022/10/13 05:00:55;;;;;;;11.67;6.10;;;;;;;3.33;100.00;101323.69;4936755;28;20054;-80
2022/10/13 05:03:23;;;;;;;11.27;7.33;;;;;;;3.37;100.00;101312.47;4955930;28;20416;-80
2022/10/13 05:05:51;;;;;;;19.00;8.30;;;;;;;3.43;100.00;101318.66;4969744;28;20634;-79
2022/10/13 05:08:18;;;;;;;11.90;6.87;;;;;;;3.47;100.00;101316.13;4938291;29;20066;-80
2022/10/13 05:10:58;;;;;;;10.67;6.63;;;;;;;3.61;100.00;101303.31;4953747;28;20046;-80
2022/10/13 05:13:26;;;;;;;11.53;7.07;;;;;;;3.50;100.00;101294.41;4941339;28;20043;-80
2022/10/13 05:15:52;;;;;;;11.77;6.60;;;;;;;3.48;100.00;101303.97;4932531;28;20051;-80
2022/10/13 05:18:19;;;;;;;9.50;6.00;;;;;;;3.48;100.00;101298.72;4921931;29;20086;-80
2022/10/13 05:20:46;;;;;;;13.17;7.93;;;;;;;3.57;100.00;101301.50;4937967;29;20051;-79
2022/10/13 05:23:13;;;;;;;10.93;6.13;;;;;;;3.65;100.00;101297.31;4939543;29;20043;-80
2022/10/13 05:25:40;;;;;;;13.67;7.37;;;;;;;3.64;100.00;101293.81;4938713;29;20527;-80
2022/10/13 05:28:07;;;;;;;13.03;8.43;;;;;;;3.59;100.00;101291.97;4922970;29;20054;-80
2022/10/13 05:30:34;;;;;;;13.90;7.97;;;;;;;3.61;100.00;101285.91;4942066;28;20050;-81
2022/10/13 05:33:01;;;;;;;16.60;8.70;;;;;;;3.62;100.00;101286.81;4935255;29;20051;-83
2022/10/13 05:35:28;;;;;;;14.27;8.83;;;;;;;3.68;100.00;101282.53;4951150;29;20059;-79
2022/10/13 05:37:55;;;;;;;17.13;8.77;;;;;;;3.72;100.00;101290.47;4961337;28;20047;-79
2022/10/13 05:40:22;;;;;;;16.37;9.13;;;;;;;3.74;100.00;101287.00;4927301;29;20057;-79
2022/10/13 05:42:49;;;;;;;19.73;11.23;;;;;;;3.73;100.00;101300.94;4940657;29;20043;-79
2022/10/13 05:45:17;;;;;;;15.47;10.03;;;;;;;3.76;100.00;101279.19;4922131;28;20107;-80
2022/10/13 05:47:44;;;;;;;21.57;10.57;;;;;;;3.78;100.00;101288.81;4923636;28;20035;-81
2022/10/13 05:50:11;;;;;;;18.67;10.63;;;;;;;3.83;100.00;101281.94;4921533;29;20079;-80
2022/10/13 05:52:38;;;;;;;17.13;10.27;;;;;;;3.85;100.00;101276.72;4945450;28;20408;-80
2022/10/13 05:55:07;;;;;;;18.47;9.77;;;;;;;3.92;100.00;101279.47;4931371;28;20073;-81
2022/10/13 05:57:38;;;;;;;22.67;12.13;;;;;;;4.00;100.00;101281.34;4927808;28;20074;-81
2022/10/13 06:00:10;;;;;;;23.57;14.80;;;;;;;4.03;100.00;101287.47;4940405;29;20537;-82
2022/10/13 06:02:42;;;;;;;22.63;15.00;;;;;;;4.08;100.00;101291.06;4951180;28;20471;-81
2022/10/13 06:05:14;;;;;;;29.63;18.87;;;;;;;4.15;100.00;101294.66;4957261;28;20074;-82
2022/10/13 06:07:41;;;;;;;31.93;16.57;;;;;;;4.23;100.00;101298.28;4938908;28;20513;-81
2022/10/13 06:10:08;;;;;;;24.73;15.43;;;;;;;4.31;100.00;101288.81;4928704;23;20043;-76
2022/10/13 06:12:35;;;;;;;25.07;14.83;;;;;;;4.39;100.00;101299.41;4950712;28;20062;-76
2022/10/13 06:15:02;;;;;;;27.80;15.03;;;;;;;4.44;100.00;101297.72;4953525;28;20452;-76
2022/10/13 06:17:29;;;;;;;22.00;13.67;;;;;;;4.47;100.00;101290.81;4943095;28;20706;-76
2022/10/13 06:19:55;;;;;;;22.00;12.80;;;;;;;4.53;100.00;101295.22;4951438;28;20039;-76
2022/10/13 06:22:22;;;;;;;22.37;12.77;;;;;;;4.57;100.00;101296.16;4930578;29;20039;-76
2022/10/13 06:24:49;;;;;;;20.60;11.87;;;;;;;4.61;100.00;101288.34;4933088;29;20032;-76
2022/10/13 06:27:15;;;;;;;20.80;11.20;;;;;;;4.65;100.00;101292.78;4950248;28;20567;-77
2022/10/13 06:29:42;;;;;;;14.73;9.10;;;;;;;4.68;100.00;101298.06;4946825;28;20543;-76
2022/10/13 06:32:09;;;;;;;16.00;9.07;;;;;;;4.74;100.00;101294.66;4946536;28;20040;-76
2022/10/13 06:34:35;;;;;;;16.67;9.03;;;;;;;4.72;100.00;101294.63;4954735;28;20674;-77
2022/10/13 06:37:02;;;;;;;13.07;8.70;;;;;;;4.79;100.00;101298.19;4941755;28;20463;-76
2022/10/13 06:39:28;;;;;;;18.90;9.90;;;;;;;4.79;100.00;101296.50;4959443;28;20530;-79
2022/10/13 06:41:55;;;;;;;14.00;9.30;;;;;;;4.80;100.00;101298.25;4934825;29;20051;-77
2022/10/13 06:44:22;;;;;;;13.40;8.60;;;;;;;4.82;100.00;101289.53;4934903;29;20051;-79
2022/10/13 06:46:49;;;;;;;12.53;7.80;;;;;;;4.85;100.00;101289.56;4928860;29;20051;-76
2022/10/13 06:49:16;;;;;;;13.10;7.30;;;;;;;4.89;100.00;101283.50;4928867;29;20047;-76
2022/10/13 06:51:43;;;;;;;16.90;10.63;;;;;;;4.98;100.00;101284.50;4955007;28;20051;-76
2022/10/13 06:54:10;;;;;;;24.63;15.73;;;;;;;5.08;100.00;101283.75;4955607;28;20143;-77
2022/10/13 06:56:37;;;;;;;28.07;15.53;;;;;;;5.13;100.00;101282.91;4937655;29;20440;-77
2022/10/13 06:59:03;;;;;;;31.47;19.97;;;;;;;5.33;100.00;101282.28;4944850;28;20327;-78
2022/10/13 07:01:30;;;;;;;31.13;17.83;;;;;;;5.47;100.00;101285.06;4947471;28;20036;-77
2022/10/13 07:03:57;;;;;;;25.63;15.03;;;;;;;5.55;100.00;101293.88;4916788;28;20051;-76
2022/10/13 07:06:24;;;;;;;18.57;11.00;;;;;;;5.63;100.00;101278.19;4937059;29;20389;-77
2022/10/13 07:08:51;;;;;;;20.97;10.33;;;;;;;5.72;100.00;101277.41;4926932;29;20412;-77
2022/10/13 07:11:17;;;;;;;18.60;11.40;;;;;;;5.83;100.00;101275.78;4936790;29;20102;-77
2022/10/13 07:13:44;;;;;;;15.90;10.77;;;;;;;5.93;100.00;101280.25;4957849;28;20031;-78
2022/10/13 07:16:13;;;;;;;22.50;13.80;;;;;;;6.04;100.00;101275.97;4951674;28;20070;-78
2022/10/13 07:18:39;;;;;;;20.27;12.00;;;;;;;6.13;100.00;101273.41;4919957;28;20040;-77
2022/10/13 07:21:06;;;;;;;16.60;10.83;;;;;;;6.20;100.00;101269.09;4947961;28;20122;-77
2022/10/13 07:23:33;;;;;;;20.37;11.73;;;;;;;6.33;100.00;101270.97;4930914;29;20043;-77
2022/10/13 07:26:00;;;;;;;21.93;10.90;;;;;;;6.30;100.00;101267.41;4928832;29;20145;-77
2022/10/13 07:28:27;;;;;;;18.30;10.10;;;;;;;6.30;100.00;101263.03;4932041;29;20217;-77
2022/10/13 07:30:54;;;;;;;15.73;9.77;;;;;;;6.36;100.00;101270.09;4946262;28;20044;-77
2022/10/13 07:33:20;;;;;;;15.60;10.77;;;;;;;6.43;100.00;101271.88;4951190;28;20055;-77
2022/10/13 07:35:47;;;;;;;16.60;10.40;;;;;;;6.55;100.00;101268.44;4947212;28;23638;-77
2022/10/13 07:38:14;;;;;;;21.47;11.23;;;;;;;6.71;100.00;101270.28;4936771;29;20040;-78
2022/10/13 07:40:40;;;;;;;21.20;13.40;;;;;;;6.92;100.00;101274.78;4932836;29;20433;-77
2022/10/13 07:43:07;;;;;;;17.83;10.33;;;;;;;6.96;100.00;101268.66;4947880;28;20051;-77
2022/10/13 07:45:34;;;;;;;18.23;10.50;;;;;;;7.20;100.00;101263.47;4932551;29;20040;-77
2022/10/13 07:48:01;;;;;;;21.33;11.10;;;;;;;7.27;100.00;101265.25;4936927;29;20094;-77
2022/10/13 07:50:27;;;;;;;15.60;10.23;;;;;;;7.27;100.00;101262.63;4931535;29;20059;-78
2022/10/13 07:52:54;;;;;;;17.43;11.43;;;;;;;7.50;100.00;101254.81;4946865;28;20552;-77
2022/10/13 07:55:20;;;;;;;18.70;11.53;;;;;;;7.68;100.00;101263.59;4947350;28;20103;-77
2022/10/13 07:57:47;;;;;;;25.47;15.47;;;;;;;7.78;100.00;101268.84;4949151;28;20090;-77
2022/10/13 08:00:14;;;;;;;16.33;11.50;;;;;;;7.84;100.00;101250.44;4948244;28;20671;-78
2022/10/13 08:02:40;;;;;;;18.43;11.17;;;;;;;8.02;100.00;101248.69;4934604;29;20075;-77
2022/10/13 08:05:07;;;;;;;18.00;11.63;;;;;;;8.07;100.00;101260.06;4948776;28;20043;-77
2022/10/13 08:07:36;;;;;;;15.87;11.97;;;;;;;8.25;100.00;101246.91;4919597;29;20095;-77
2022/10/13 08:10:03;;;;;;;19.77;12.43;;;;;;;8.18;100.00;101246.03;4951744;28;20512;-77
2022/10/13 08:12:30;;;;;;;15.93;10.33;;;;;;;8.42;100.00;101250.44;4928984;29;20039;-77
2022/10/13 08:14:56;;;;;;;17.20;10.10;;;;;;;8.44;100.00;101248.66;4935209;28;20040;-77
2022/10/13 08:17:27;;;;;;;15.27;9.40;;;;;;;8.53;100.00;101239.84;4938205;29;20067;-78
2022/10/13 08:19:55;;;;;;;13.80;10.00;;;;;;;8.78;100.00;101232.75;4953865;28;20098;-77
2022/10/13 08:22:22;;;;;;;18.40;10.83;;;;;;;8.83;100.00;101230.06;4934858;29;20046;-77
2022/10/13 08:24:54;;;;;;;16.57;9.57;;;;;;;8.88;100.00;101228.31;4925367;29;20035;-77
2022/10/13 08:27:23;;;;;;;16.85;10.07;;;;;;;8.98;100.00;101232.66;4941754;29;20520;-77
2022/10/13 08:30:03;;;;;;;15.70;9.35;;;;;;;9.21;100.00;101225.50;4948629;28;20496;-78
2022/10/13 08:32:30;;;;;;;19.42;10.52;;;;;;;9.28;100.00;101227.22;4931577;29;20044;-76
2022/10/13 08:34:56;;;;;;;17.25;10.77;;;;;;;9.33;100.00;101221.91;4950391;28;20039;-77
2022/10/13 08:37:30;;;;;;;14.82;9.85;;;;;;;9.43;100.00;101225.38;4932490;29;20050;-79
2022/10/13 08:40:01;;;;;;;13.60;9.27;;;;;;;9.70;100.00;101224.28;4913237;29;20047;-78
2022/10/13 08:42:28;;;;;;;13.52;9.30;;;;;;;9.64;100.00;101226.97;4937201;29;21741;-78
2022/10/13 08:44:57;;;;;;;16.08;9.63;;;;;;;9.85;100.00;101227.69;4947685;28;20059;-78
2022/10/13 08:47:46;;;;;;;14.93;9.43;;;;;;;9.79;100.00;101226.84;4947427;28;20550;-78
2022/10/13 08:50:19;;;;;;;15.45;10.20;;;;;;;9.87;100.00;101215.34;4948447;28;20078;-78
2022/10/13 08:53:01;;;;;;;17.15;9.75;;;;;;;9.97;100.00;101217.91;4955085;28;20074;-78
2022/10/13 08:55:40;;;;;;;15.13;8.95;;;;;;;10.00;100.00;101210.81;4938809;29;20050;-78
2022/10/13 08:58:27;;;;;;;14.48;9.38;;;;;;;10.49;100.00;101201.56;4947868;28;20075;-78
2022/10/13 09:01:09;;;;;;;15.35;8.80;;;;;;;10.46;100.00;101213.03;4944359;28;20043;-78
2022/10/13 09:04:15;;;;;;;15.75;9.25;;;;;;;10.60;100.00;101208.47;4931887;29;20043;-78
2022/10/13 09:07:07;;;;;;;13.38;9.40;;;;;;;10.76;100.00;101211.78;4946006;28;20494;-78
2022/10/13 09:09:34;;;;;;;14.10;7.80;;;;;;;10.87;100.00;101201.97;4938692;29;20059;-78
2022/10/13 09:12:01;;;;;;;11.10;8.23;;;;;;;11.02;100.00;101194.75;4945247;28;20469;-78
2022/10/13 09:14:30;;;;;;;10.35;8.30;;;;;;;11.32;100.00;101209.28;4939151;29;20582;-78
2022/10/13 09:17:12;;;;;;;19.85;9.07;;;;;;;11.46;100.00;101200.25;4941313;29;20044;-78
2022/10/13 09:19:57;;;;;;;15.57;8.73;;;;;;;11.59;100.00;101195.63;4949676;28;20051;-78
2022/10/13 09:22:27;;;;;;;16.48;8.10;;;;;;;11.77;100.00;101199.72;4948896;28;20044;-78
2022/10/13 09:25:06;;;;;;;15.32;8.32;;;;;;;11.76;100.00;101184.75;4940071;28;20118;-77
2022/10/13 09:27:51;;;;;;;14.18;7.25;;;;;;;11.64;100.00;101182.31;4954555;28;20176;-77
2022/10/13 09:30:40;;;;;;;9.13;6.38;;;;;;;11.76;100.00;101175.03;4935229;29;20106;-78
2022/10/13 09:33:07;;;;;;;10.07;7.45;;;;;;;11.88;100.00;101183.72;4925285;29;20035;-78
2022/10/13 09:35:35;;;;;;;12.27;7.70;;;;;;;11.88;100.00;101181.06;4950011;28;20031;-78
2022/10/13 09:38:06;;;;;;;13.10;7.20;;;;;;;12.06;100.00;101184.25;4948180;28;20456;-78
2022/10/13 09:40:32;;;;;;;15.65;7.95;;;;;;;12.13;100.00;101181.50;4949490;28;20047;-78
2022/10/13 09:43:00;;;;;;;17.02;7.85;;;;;;;12.30;100.00;101188.22;4950789;28;20050;-77
2022/10/13 09:45:29;;;;;;;11.80;8.50;;;;;;;12.24;100.00;101179.53;4933871;29;20051;-78
2022/10/13 09:47:58;;;;;;;13.65;8.38;;;;;;;12.45;99.53;101176.47;4942642;28;20051;-78
2022/10/13 09:50:27;;;;;;;14.15;8.45;;;;;;;12.47;100.00;101177.31;4920053;29;20048;-78
2022/10/13 09:53:10;;;;;;;13.80;7.75;;;;;;;12.38;100.00;101180.13;4949803;28;20078;-77
2022/10/13 09:55:37;;;;;;;13.23;6.93;;;;;;;12.27;100.00;101176.81;4955447;28;20039;-78
2022/10/13 09:58:18;;;;;;;12.05;7.50;;;;;;;12.33;100.00;101177.56;4946416;28;20035;-77
2022/10/13 10:00:45;;;;;;;11.63;8.18;;;;;;;12.35;100.00;101175.75;4937739;28;20469;-77
2022/10/13 10:03:17;;;;;;;11.07;7.15;;;;;;;12.33;100.00;101172.25;4926004;29;20043;-77
2022/10/13 10:05:50;;;;;;;8.95;6.70;;;;;;;12.39;100.00;101172.16;4943923;28;20051;-78
2022/10/13 10:08:25;;;;;;;14.50;8.35;;;;;;;12.53;100.00;101176.31;4940787;29;20051;-78
2022/10/13 10:11:11;;;;;;;10.10;6.63;;;;;;;12.60;100.00;101173.47;4931539;29;20047;-78
2022/10/13 10:13:38;;;;;;;11.60;6.97;;;;;;;12.73;100.00;101181.19;4932986;28;20051;-78
2022/10/13 10:16:18;;;;;;;12.80;7.85;;;;;;;12.83;100.00;101183.63;4927294;29;20087;-77
2022/10/13 10:18:48;;;;;;;8.85;6.70;;;;;;;12.84;100.00;101173.88;4932433;28;20106;-78
2022/10/13 10:21:32;;;;;;;12.80;7.75;;;;;;;12.95;97.29;101178.06;4946925;28;20086;-77
2022/10/13 10:24:06;;;;;;;10.38;6.30;;;;;;;12.96;98.59;101169.19;4948918;28;20040;-77
2022/10/13 10:26:44;;;;;;;11.82;6.80;;;;;;;13.00;98.82;101166.47;4953144;28;20039;-78
2022/10/13 10:29:16;;;;;;;10.07;7.55;;;;;;;13.23;97.13;101167.72;4925483;29;20040;-77
2022/10/13 10:32:24;;;;;;;11.43;7.05;;;;;;;13.31;95.06;101158.72;4928938;29;20050;-77
2022/10/13 10:35:13;;;;;;;11.35;8.30;;;;;;;13.66;93.01;101149.88;4931926;29;20051;-77
2022/10/13 10:37:48;;;;;;;13.02;7.32;;;;;;;13.96;91.16;101148.22;4942920;28;20547;-78
2022/10/13 10:40:21;;;;;;;13.95;7.32;;;;;;;14.19;88.67;101143.13;4942348;29;20043;-78
2022/10/13 10:42:48;;;;;;;11.02;7.18;;;;;;;14.13;85.92;101145.13;4927227;29;20047;-78
2022/10/13 10:45:21;;;;;;;11.85;6.88;;;;;;;14.51;85.06;101136.06;4934968;29;20044;-77
2022/10/13 10:47:51;;;;;;;11.20;7.57;;;;;;;14.70;85.24;101131.94;4925994;29;20456;-78
2022/10/13 10:50:18;;;;;;;12.05;7.45;;;;;;;14.92;84.97;101129.50;4947333;28;20560;-77
2022/10/13 10:52:47;;;;;;;14.45;7.57;;;;;;;14.83;83.70;101128.00;4940224;28;20102;-78
2022/10/13 10:55:29;;;;;;;11.48;7.25;;;;;;;14.70;83.65;101128.41;4930233;28;20039;-78
2022/10/13 10:58:33;;;;;;;10.98;7.03;;;;;;;14.48;84.95;101129.06;4951628;28;20098;-78
2022/10/13 11:01:05;;;;;;;11.02;7.00;;;;;;;14.26;87.54;101123.44;4925204;29;20050;-77
2022/10/13 11:03:42;;;;;;;19.13;7.35;;;;;;;14.18;90.24;101133.41;4953334;28;20386;-77
2022/10/13 11:06:25;;;;;;;14.25;7.60;;;;;;;14.27;91.48;101126.97;4948006;28;20035;-78
2022/10/13 11:08:54;;;;;;;13.82;7.60;;;;;;;14.28;90.76;101116.28;4936296;28;20566;-78
2022/10/13 11:11:30;;;;;;;13.57;7.57;;;;;;;14.30;92.64;101116.28;4918350;29;20047;-78
2022/10/13 11:14:05;;;;;;;11.65;7.15;;;;;;;14.39;90.78;101116.00;4943131;28;20055;-78
2022/10/13 11:16:39;;;;;;;11.52;7.35;;;;;;;14.40;91.48;101117.75;4931124;28;20533;-79
2022/10/13 11:19:37;;;;;;;10.52;7.13;;;;;;;14.65;92.01;101104.63;4963820;28;20035;-78
2022/10/13 11:22:04;;;;;;;11.65;7.45;;;;;;;14.73;87.87;101105.28;4935413;29;20046;-78
2022/10/13 11:24:40;;;;;;;13.65;8.23;;;;;;;14.91;86.63;101096.72;4959050;28;20090;-77
2022/10/13 11:27:07;;;;;;;9.30;6.60;;;;;;;14.99;86.40;101090.28;4956398;28;20051;-79
2022/10/13 11:29:56;;;;;;;15.60;7.85;;;;;;;15.18;87.29;101099.41;4948252;28;20048;-79
2022/10/13 11:32:40;;;;;;;13.32;6.57;;;;;;;15.18;87.46;101086.97;4935711;29;20043;-78